Time;durP1;ratioP1;P1;durP2;ratioP2;P2;SDS_P1;SDS_P2;PMS_P1;PMS_P2;Temp;Humidity;BMP_temperature;BMP_pressure;BME280_temperature;BME280_humidity;BME280_pressure;Samples;Min_cycle;Max_cycle;Signal;HPM_P1;HPM_P2
2023/05/06 00:00:02;;;;;;;4.57;3.90;;;;;;;16.61;54.13;99937.09;10422839;28;20290;-72
2023/05/06 00:05:04;;;;;;;4.10;3.70;;;;;;;16.84;53.60;99924.84;10425245;28;20224;-72
2023/05/06 00:10:06;;;;;;;4.77;3.90;;;;;;;17.06;53.03;99915.31;10422579;28;20235;-72
2023/05/06 00:15:08;;;;;;;4.20;3.80;;;;;;;17.79;51.97;99956.09;10435215;28;20235;-72
2023/05/06 00:20:10;;;;;;;5.07;3.60;;;;;;;15.83;55.22;99903.16;10426680;28;20743;-73
2023/05/06 00:25:12;;;;;;;8.77;3.97;;;;;;;16.28;54.44;99896.84;10432707;28;20746;-72
2023/05/06 00:30:14;;;;;;;6.23;4.77;;;;;;;16.11;54.36;99891.13;10432596;28;20232;-72
2023/05/06 00:35:15;;;;;;;7.03;3.73;;;;;;;15.16;56.43;99889.94;10434555;28;20239;-73
2023/05/06 00:40:17;;;;;;;4.83;4.33;;;;;;;15.72;55.33;99898.44;10433862;28;20242;-72
2023/05/06 00:45:18;;;;;;;6.47;4.10;;;;;;;16.05;55.11;99936.03;10434787;28;20223;-72
2023/05/06 00:50:21;;;;;;;4.57;3.97;;;;;;;15.96;54.27;99891.44;10425280;28;20253;-72
2023/05/06 00:55:23;;;;;;;5.10;4.43;;;;;;;15.57;55.13;99894.19;10428606;28;20232;-74
2023/05/06 01:00:25;;;;;;;5.73;4.43;;;;;;;16.51;53.54;99923.28;10429515;28;20221;-73
2023/05/06 01:05:34;;;;;;;7.40;4.43;;;;;;;16.31;53.88;99926.94;10435372;28;20316;-73
2023/05/06 01:10:56;;;;;;;7.13;4.70;;;;;;;15.45;55.28;99907.47;10443297;28;20232;-73
2023/05/06 01:15:59;;;;;;;7.10;5.20;;;;;;;16.48;52.71;99905.63;10432021;28;20282;-71
2023/05/06 01:21:04;;;;;;;7.33;5.07;;;;;;;16.64;53.05;99939.38;10423217;28;20243;-73
2023/05/06 01:26:05;;;;;;;4.87;4.37;;;;;;;16.89;51.48;99909.63;10422086;28;20239;-72
2023/05/06 01:31:16;;;;;;;5.83;5.23;;;;;;;16.00;53.75;99906.16;10427100;28;20220;-73
2023/05/06 01:36:24;;;;;;;8.63;4.70;;;;;;;17.52;50.68;99935.56;10425130;28;20296;-73
2023/05/06 01:41:26;;;;;;;5.07;4.57;;;;;;;16.30;52.35;99878.56;10424073;28;20224;-73
2023/05/06 01:46:29;;;;;;;6.40;5.13;;;;;;;16.61;52.76;99943.31;10428625;28;20232;-73
2023/05/06 01:51:34;;;;;;;6.63;5.00;;;;;;;16.25;53.05;99923.22;10419882;28;20232;-71
2023/05/06 01:56:36;;;;;;;7.17;5.63;;;;;;;17.18;51.43;99945.94;10431261;28;20267;-72
2023/05/06 02:01:37;;;;;;;7.37;5.00;;;;;;;18.40;48.57;99963.13;10423975;28;20235;-73
2023/05/06 02:06:39;;;;;;;9.13;5.10;;;;;;;18.03;49.52;99928.03;10436136;28;20234;-72
2023/05/06 02:11:41;;;;;;;5.50;5.00;;;;;;;17.53;50.26;99931.00;10434910;28;20227;-73
2023/05/06 02:16:42;;;;;;;6.37;5.40;;;;;;;17.10;50.81;99916.50;10411898;28;20228;-73
2023/05/06 02:21:44;;;;;;;8.40;5.27;;;;;;;17.84;49.70;99945.41;10425220;28;20236;-72
2023/05/06 02:26:46;;;;;;;8.70;4.90;;;;;;;17.47;49.26;99867.78;10422543;28;20236;-73
2023/05/06 02:31:47;;;;;;;5.70;4.60;;;;;;;18.33;48.16;99938.03;10425812;28;20244;-73
2023/05/06 02:36:49;;;;;;;8.10;4.90;;;;;;;18.53;47.10;99915.22;10423048;28;20236;-73
2023/05/06 02:41:50;;;;;;;7.23;4.73;;;;;;;18.56;46.81;99910.16;10431499;28;20246;-73
2023/05/06 02:46:52;;;;;;;6.60;4.80;;;;;;;18.61;46.71;99893.19;10422747;28;21988;-74
2023/05/06 02:51:54;;;;;;;6.90;4.90;;;;;;;17.78;47.69;99830.78;10425756;28;20228;-73
2023/05/06 02:56:55;;;;;;;6.17;5.40;;;;;;;17.34;48.60;99827.38;10422945;28;20229;-73
2023/05/06 03:01:57;;;;;;;5.47;4.83;;;;;;;17.94;47.76;99845.50;10424442;28;20609;-73
2023/05/06 03:06:59;;;;;;;7.87;5.33;;;;;;;18.26;47.10;99845.22;10424661;28;20237;-73
2023/05/06 03:12:01;;;;;;;6.67;4.83;;;;;;;17.93;47.66;99827.59;10421285;28;20519;-75
2023/05/06 03:17:02;;;;;;;5.33;4.73;;;;;;;18.16;47.05;99837.66;10415423;28;20224;-76
2023/05/06 03:22:04;;;;;;;6.43;5.00;;;;;;;17.24;48.99;99830.66;10417845;28;20227;-76
2023/05/06 03:27:06;;;;;;;5.87;5.27;;;;;;;16.98;48.65;99794.78;10424554;28;20232;-77
2023/05/06 03:32:07;;;;;;;8.90;5.40;;;;;;;17.14;47.74;99820.38;10418979;28;20224;-75
2023/05/06 03:37:09;;;;;;;8.40;5.53;;;;;;;17.53;47.89;99839.00;10425053;28;20228;-76
2023/05/06 03:42:11;;;;;;;6.30;5.47;;;;;;;16.90;48.99;99802.34;10422142;28;20777;-76
2023/05/06 03:47:12;;;;;;;5.40;4.90;;;;;;;17.34;47.60;99821.97;10421515;28;20228;-75
2023/05/06 03:52:14;;;;;;;5.83;4.83;;;;;;;17.05;47.71;99826.31;10421766;28;20710;-73
2023/05/06 03:57:16;;;;;;;23.47;5.53;;;;;;;16.66;48.33;99845.41;10429290;28;20228;-75
2023/05/06 04:02:17;;;;;;;62.50;7.70;;;;;;;16.42;49.59;99847.09;10427238;28;20236;-75
2023/05/06 04:07:21;;;;;;;22.43;5.30;;;;;;;17.32;47.88;99851.94;10424899;28;20730;-76
2023/05/06 04:12:23;;;;;;;52.57;7.00;;;;;;;17.27;47.86;99851.00;10428251;28;20607;-75
2023/05/06 04:17:25;;;;;;;7.07;4.83;;;;;;;17.39;47.60;99824.81;10424988;28;20228;-76
2023/05/06 04:22:26;;;;;;;32.77;7.03;;;;;;;16.73;48.57;99823.72;10423585;28;20243;-75
2023/05/06 04:27:30;;;;;;;53.47;7.73;;;;;;;16.94;48.46;99855.72;10425919;28;20224;-76
2023/05/06 04:32:32;;;;;;;19.07;6.60;;;;;;;16.86;48.41;99864.13;10425160;28;20776;-75
2023/05/06 04:37:34;;;;;;;26.30;6.00;;;;;;;16.35;48.76;99828.25;10421044;28;20237;-77
2023/05/06 04:42:36;;;;;;;42.93;5.70;;;;;;;14.73;51.52;99780.81;10429219;28;20327;-75
2023/05/06 04:47:39;;;;;;;22.90;5.57;;;;;;;16.89;49.18;99854.75;10426956;28;20246;-76
2023/05/06 04:52:40;;;;;;;25.13;4.90;;;;;;;16.44;48.98;99851.22;10421904;28;20310;-76
2023/05/06 04:57:42;;;;;;;47.57;6.27;;;;;;;16.11;50.42;99869.53;10419006;28;20603;-75
2023/05/06 05:02:43;;;;;;;44.57;7.43;;;;;;;16.04;51.03;99878.53;10422219;28;20240;-76
2023/05/06 05:07:45;;;;;;;42.60;7.87;;;;;;;17.35;48.77;99848.81;10419430;28;20231;-76
2023/05/06 05:12:47;;;;;;;66.03;9.13;;;;;;;15.57;51.93;99858.28;10425362;28;20270;-74
2023/05/06 05:17:49;;;;;;;91.70;11.80;;;;;;;15.80;52.19;99872.03;10424582;28;20231;-75
2023/05/06 05:22:51;;;;;;;66.07;9.67;;;;;;;17.50;49.54;99858.41;10417633;28;20254;-75
2023/05/06 05:27:53;;;;;;;54.27;8.70;;;;;;;17.40;50.20;99867.06;10421896;28;20775;-75
2023/05/06 05:32:54;;;;;;;37.10;9.30;;;;;;;16.97;50.82;99852.59;10420667;28;20242;-77
2023/05/06 05:37:56;;;;;;;18.90;7.50;;;;;;;17.33;50.32;99871.72;10423505;28;20225;-76
2023/05/06 05:42:58;;;;;;;23.50;7.43;;;;;;;16.63;51.53;99837.75;10429781;28;20228;-76
2023/05/06 05:47:59;;;;;;;21.20;7.33;;;;;;;17.67;50.12;99840.50;10424438;28;20239;-75
2023/05/06 05:53:01;;;;;;;26.33;7.60;;;;;;;17.80;50.48;99887.34;10421779;28;20324;-76
2023/05/06 05:58:03;;;;;;;20.93;7.70;;;;;;;19.14;47.99;99892.22;10420711;28;20223;-76
2023/05/06 06:03:04;;;;;;;15.47;8.27;;;;;;;17.80;50.59;99830.50;10421710;28;20244;-75
2023/05/06 06:08:07;;;;;;;19.67;8.73;;;;;;;18.11;51.20;99867.31;10424502;28;20330;-76
2023/05/06 06:13:08;;;;;;;16.40;9.17;;;;;;;18.06;51.10;99876.13;10424180;28;20777;-76
2023/05/06 06:18:10;;;;;;;16.47;10.43;;;;;;;18.32;50.34;99874.09;10421753;28;20319;-76
2023/05/06 06:23:12;;;;;;;11.37;9.03;;;;;;;17.93;50.76;99846.56;10419304;28;20831;-73
2023/05/06 06:28:13;;;;;;;10.70;9.13;;;;;;;18.63;50.20;99897.31;10420023;28;20234;-76
2023/05/06 06:33:15;;;;;;;11.83;9.53;;;;;;;19.15;49.65;99893.06;10421633;28;20949;-77
2023/05/06 06:38:17;;;;;;;12.90;10.47;;;;;;;16.49;53.37;99855.16;10425467;28;20236;-77
2023/05/06 06:43:18;;;;;;;15.43;10.20;;;;;;;18.57;50.23;99848.66;10417471;28;20301;-75
2023/05/06 06:48:20;;;;;;;11.27;10.00;;;;;;;17.97;51.93;99826.09;10417176;28;20684;-76
2023/05/06 06:53:22;;;;;;;14.03;10.97;;;;;;;17.51;53.06;99858.19;10420152;28;20240;-76
2023/05/06 06:58:24;;;;;;;10.87;9.40;;;;;;;18.26;51.06;99826.25;10416971;28;20215;-76
2023/05/06 07:03:25;;;;;;;11.27;9.10;;;;;;;17.61;52.48;99845.97;10420487;28;20239;-76
2023/05/06 07:08:27;;;;;;;11.10;8.10;;;;;;;18.58;50.12;99861.97;10422447;28;20228;-74
2023/05/06 07:13:29;;;;;;;10.17;8.33;;;;;;;18.16;52.01;99886.41;10419337;28;20232;-75
2023/05/06 07:18:30;;;;;;;9.80;8.60;;;;;;;16.89;54.26;99855.56;10421704;28;20204;-75
2023/05/06 07:23:32;;;;;;;9.33;8.10;;;;;;;16.91;55.15;99899.41;10429771;28;20246;-75
2023/05/06 07:28:33;;;;;;;8.80;7.90;;;;;;;17.89;52.25;99857.03;10428133;28;20224;-76
2023/05/06 07:33:35;;;;;;;9.57;7.93;;;;;;;18.44;51.48;99888.47;10430250;28;20232;-75
2023/05/06 07:38:37;;;;;;;8.80;7.70;;;;;;;18.52;51.78;99895.41;10429166;28;20241;-76
2023/05/06 07:43:38;;;;;;;8.20;7.27;;;;;;;19.39;49.92;99931.81;10428869;28;20240;-76
2023/05/06 07:48:40;;;;;;;8.20;6.77;;;;;;;18.66;50.55;99866.22;10429528;28;20273;-76
2023/05/06 07:53:41;;;;;;;8.87;7.93;;;;;;;18.59;51.41;99908.84;10425117;28;20300;-75
2023/05/06 07:58:43;;;;;;;8.53;7.73;;;;;;;18.04;51.07;99850.34;10428940;28;21121;-75
2023/05/06 08:03:45;;;;;;;8.23;7.23;;;;;;;19.07;50.27;99885.28;10425559;28;20244;-75
2023/05/06 08:08:46;;;;;;;9.30;6.37;;;;;;;18.69;50.05;99887.41;10422499;28;20321;-75
2023/05/06 08:13:48;;;;;;;7.67;6.00;;;;;;;18.28;50.27;99845.78;10422567;28;20592;-76
2023/05/06 08:18:50;;;;;;;7.23;5.87;;;;;;;20.17;48.64;99940.41;10428388;28;20252;-73
2023/05/06 08:23:51;;;;;;;4.77;4.27;;;;;;;19.25;48.15;99870.72;10423937;28;20718;-75
2023/05/06 08:28:55;;;;;;;5.33;4.23;;;;;;;19.78;47.61;99876.94;10423374;28;20236;-75
2023/05/06 08:33:56;;;;;;;6.63;5.30;;;;;;;18.68;49.64;99858.66;10419239;28;22404;-76
2023/05/06 08:38:58;;;;;;;5.13;4.63;;;;;;;19.66;48.30;99877.81;10414345;28;20228;-72
2023/05/06 08:44:02;;;;;;;5.97;4.20;;;;;;;19.15;47.52;99865.94;10416188;28;20236;-75
2023/05/06 08:49:04;;;;;;;5.73;4.70;;;;;;;20.34;47.38;99872.47;10415938;28;20726;-76
2023/05/06 08:54:08;;;;;;;6.17;4.50;;;;;;;20.36;46.80;99826.84;10420373;28;20239;-74
2023/05/06 08:59:10;;;;;;;4.90;4.20;;;;;;;20.57;47.23;99822.56;10417837;28;20236;-73
2023/05/06 09:04:12;;;;;;;6.53;4.17;;;;;;;19.60;47.79;99793.81;10422305;28;20242;-74
2023/05/06 09:09:13;;;;;;;7.33;4.30;;;;;;;21.68;45.30;99861.47;10426609;28;20236;-75
2023/05/06 09:14:16;;;;;;;5.27;4.20;;;;;;;21.60;45.05;99813.75;10352145;22;20245;-89
2023/05/06 09:19:20;;;;;;;3.43;2.63;;;;;;;20.86;45.04;99787.06;10302720;28;20238;-88
2023/05/06 09:24:23;;;;;;;3.20;2.43;;;;;;;20.63;43.29;99760.91;10303947;28;20230;-88
2023/05/06 09:29:24;;;;;;;3.67;2.50;;;;;;;21.15;43.69;99786.84;10312626;28;20244;-88
2023/05/06 09:34:26;;;;;;;3.00;2.37;;;;;;;19.29;44.70;99820.38;10307394;28;20218;-88
2023/05/06 09:39:28;;;;;;;3.23;2.90;;;;;;;20.13;44.52;99785.19;10309621;28;20251;-91
2023/05/06 09:44:30;;;;;;;3.20;2.90;;;;;;;19.60;46.22;99812.81;10325608;28;20742;-88
2023/05/06 09:49:32;;;;;;;3.83;3.13;;;;;;;20.94;44.20;99745.00;10314523;28;20234;-89
2023/05/06 09:54:34;;;;;;;3.87;2.60;;;;;;;19.06;44.58;99721.75;10340746;28;20292;-91
2023/05/06 09:59:40;;;;;;;3.20;2.37;;;;;;;21.78;43.11;99732.78;10319190;28;20711;-91
2023/05/06 10:04:44;;;;;;;4.75;3.10;;;;;;;20.67;43.10;99694.09;10309398;28;20937;-88
2023/05/06 10:09:48;;;;;;;3.13;2.30;;;;;;;21.70;42.71;99722.34;10309595;28;20249;-90
2023/05/06 10:14:50;;;;;;;2.50;2.30;;;;;;;21.70;42.31;99706.03;10310862;28;20241;-91
2023/05/06 10:19:57;;;;;;;2.67;2.10;;;;;;;21.44;41.29;99705.78;10325950;28;20230;-90
2023/05/06 10:25:07;;;;;;;3.00;2.27;;;;;;;20.29;44.21;99742.81;10323421;28;20222;-90
2023/05/06 10:30:12;;;;;;;2.03;1.83;;;;;;;21.56;41.00;99698.28;10306200;28;20313;-92
2023/05/06 10:35:32;;;;;;;2.33;2.13;;;;;;;21.52;42.39;99667.22;10313615;28;20284;-89
2023/05/06 10:40:34;;;;;;;4.82;2.20;;;;;;;22.48;40.26;99665.31;10312970;28;20226;-88
2023/05/06 10:46:08;;;;;;;3.70;2.15;;;;;;;22.16;40.98;99621.88;10304019;28;20234;-89
2023/05/06 10:51:16;;;;;;;2.30;2.10;;;;;;;21.56;41.66;99624.78;10302750;28;20257;-89
2023/05/06 10:56:18;;;;;;;3.17;2.10;;;;;;;22.66;40.83;99603.25;10300516;28;20244;-91
2023/05/06 11:06:47;;;;;;;3.77;2.30;;;;;;;17.17;46.93;99784.78;10482586;27;2024821;-70
2023/05/06 11:11:52;;;;;;;2.58;2.35;;;;;;;18.38;44.12;99770.22;10461301;28;20669;-68
2023/05/06 11:16:57;;;;;;;3.67;2.40;;;;;;;18.37;44.48;99729.81;10491947;28;20559;-68
2023/05/06 11:22:01;;;;;;;2.55;2.35;;;;;;;18.17;42.89;99758.06;10475601;28;20609;-68
2023/05/06 11:27:03;;;;;;;4.00;2.80;;;;;;;18.91;42.18;99697.03;10463854;28;20236;-68
2023/05/06 11:32:20;;;;;;;1.35;1.35;;;;;;;21.12;37.98;99665.78;10460580;28;20227;-70
2023/05/06 11:37:26;;;;;;;2.22;2.03;;;;;;;19.28;39.96;99710.22;10463314;28;20258;-69
2023/05/06 11:42:28;;;;;;;1.48;1.35;;;;;;;21.17;38.93;99662.25;10462400;28;20227;-68
2023/05/06 11:47:29;;;;;;;1.92;1.30;;;;;;;19.29;40.73;99668.47;10460359;28;20254;-68
2023/05/06 11:52:31;;;;;;;1.60;1.50;;;;;;;18.79;40.84;99711.47;10460574;28;20242;-71
2023/05/06 11:57:32;;;;;;;2.10;1.60;;;;;;;21.85;39.93;99620.88;10461294;28;20235;-67
2023/05/06 12:02:34;;;;;;;1.50;1.40;;;;;;;20.38;40.59;99611.94;10459302;28;20714;-67
2023/05/06 12:07:36;;;;;;;1.60;1.33;;;;;;;21.15;39.48;99645.38;10496103;28;20255;-67
2023/05/06 12:12:38;;;;;;;2.33;1.63;;;;;;;21.59;39.60;99623.44;10463350;28;20235;-67
2023/05/06 12:17:40;;;;;;;1.30;1.20;;;;;;;20.59;38.04;99621.97;10435442;28;20742;-68
2023/05/06 12:22:41;;;;;;;1.38;1.30;;;;;;;22.01;37.86;99597.28;10465856;28;20310;-68
2023/05/06 12:27:44;;;;;;;2.03;1.60;;;;;;;21.50;37.54;99562.41;10473515;28;20243;-68
2023/05/06 12:32:56;;;;;;;1.83;1.38;;;;;;;21.75;38.27;99578.88;10437830;28;20683;-67
2023/05/06 12:38:08;;;;;;;2.10;1.70;;;;;;;21.81;38.02;99532.59;10432788;28;20235;-68
2023/05/06 12:43:11;;;;;;;1.10;1.10;;;;;;;21.88;36.00;99580.31;10429857;28;20232;-68
2023/05/06 12:48:15;;;;;;;1.30;1.20;;;;;;;20.74;35.85;99634.09;10434717;28;20247;-68
2023/05/06 12:53:31;;;;;;;1.98;1.40;;;;;;;22.14;36.45;99551.28;10434469;28;20235;-68
2023/05/06 12:58:36;;;;;;;1.25;1.15;;;;;;;20.40;35.66;99626.13;10427611;28;20232;-68
2023/05/06 13:03:39;;;;;;;1.20;1.10;;;;;;;21.07;35.32;99545.19;10472126;28;20615;-68
2023/05/06 13:08:42;;;;;;;1.48;1.30;;;;;;;22.35;35.67;99545.88;10467733;28;20736;-69
2023/05/06 13:13:44;;;;;;;1.50;1.40;;;;;;;22.76;36.51;99498.78;10430358;28;20243;-68
2023/05/06 13:18:45;;;;;;;3.05;1.60;;;;;;;22.43;36.40;99481.84;10427656;28;20286;-68
2023/05/06 13:23:47;;;;;;;1.80;1.60;;;;;;;22.62;36.17;99476.69;10428860;28;20733;-68
2023/05/06 13:28:49;;;;;;;2.50;1.52;;;;;;;23.16;36.64;99451.59;10430343;28;20235;-68
2023/05/06 13:33:50;;;;;;;1.77;1.20;;;;;;;22.02;35.95;99504.41;10427231;28;20239;-67
2023/05/06 13:38:53;;;;;;;2.45;1.40;;;;;;;22.86;35.65;99438.78;10426912;28;20266;-68
2023/05/06 13:43:54;;;;;;;1.88;1.50;;;;;;;22.99;35.75;99443.66;10427593;28;20236;-68
2023/05/06 13:48:56;;;;;;;3.42;1.70;;;;;;;22.86;36.07;99445.06;10429008;28;20899;-68
2023/05/06 13:53:58;;;;;;;2.22;1.70;;;;;;;22.78;36.71;99440.16;10431531;28;20266;-68
2023/05/06 13:58:59;;;;;;;2.08;1.50;;;;;;;20.95;36.90;99451.03;10426410;28;20297;-68
2023/05/06 14:04:01;;;;;;;3.75;1.85;;;;;;;22.85;35.91;99397.03;10428336;28;20250;-68
2023/05/06 14:09:03;;;;;;;4.32;1.80;;;;;;;23.24;36.27;99369.13;10423367;28;20769;-68
2023/05/06 14:14:05;;;;;;;1.67;1.58;;;;;;;22.85;36.36;99388.88;10427348;28;20587;-68
2023/05/06 14:19:07;;;;;;;1.98;1.40;;;;;;;24.03;35.32;99364.88;10429353;28;20289;-68
2023/05/06 14:24:09;;;;;;;2.00;1.70;;;;;;;23.32;36.46;99366.91;10424386;28;20243;-68
2023/05/06 14:29:11;;;;;;;1.52;1.42;;;;;;;22.79;36.33;99409.06;10426271;28;20232;-68
2023/05/06 14:34:12;;;;;;;1.77;1.67;;;;;;;23.04;34.95;99352.78;10427758;28;20314;-69
2023/05/06 14:39:14;;;;;;;1.48;1.38;;;;;;;24.60;35.36;99326.94;10424493;28;20637;-68
2023/05/06 14:44:16;;;;;;;2.58;1.48;;;;;;;23.87;34.11;99313.09;10435973;28;20930;-69
2023/05/06 14:49:17;;;;;;;3.38;1.80;;;;;;;23.75;33.87;99353.59;10462058;28;20236;-69
2023/05/06 14:54:19;;;;;;;1.40;1.30;;;;;;;24.30;33.67;99324.22;10427033;28;20888;-68
2023/05/06 14:59:21;;;;;;;2.63;1.40;;;;;;;24.07;33.81;99366.72;10426170;28;20263;-68
2023/05/06 15:04:23;;;;;;;2.08;1.20;;;;;;;24.50;33.96;99334.13;10425790;28;20235;-68
2023/05/06 15:09:25;;;;;;;2.08;1.30;;;;;;;24.02;34.06;99361.31;10423605;28;20240;-68
2023/05/06 15:14:26;;;;;;;3.55;1.92;;;;;;;24.29;33.92;99308.94;10428303;22;20231;-42
2023/05/06 15:19:28;;;;;;;1.50;1.40;;;;;;;24.96;33.46;99310.94;10320242;28;20244;-42
2023/05/06 15:24:30;;;;;;;2.25;1.67;;;;;;;22.52;35.62;99393.00;10327932;28;20240;-41
2023/05/06 15:29:32;;;;;;;1.67;1.58;;;;;;;24.22;34.10;99329.47;10315335;28;20340;-41
2023/05/06 15:34:34;;;;;;;1.50;1.38;;;;;;;23.44;34.28;99338.16;10301194;28;20246;-43
2023/05/06 15:39:36;;;;;;;1.63;1.52;;;;;;;24.77;32.76;99285.47;10284409;28;20237;-41
2023/05/06 15:44:38;;;;;;;1.73;1.60;;;;;;;24.76;33.37;99300.25;10300080;28;20311;-42
2023/05/06 15:49:40;;;;;;;1.48;1.30;;;;;;;23.68;33.95;99342.16;10321589;28;20221;-41
2023/05/06 15:54:44;;;;;;;1.60;1.50;;;;;;;24.87;33.27;99321.72;10347101;28;20229;-41
2023/05/06 15:59:50;;;;;;;3.70;1.50;;;;;;;23.92;33.93;99343.09;10325766;28;20793;-42
2023/05/06 16:04:52;;;;;;;1.60;1.50;;;;;;;24.53;33.40;99298.00;10325476;28;20234;-43
2023/05/06 16:09:54;;;;;;;1.48;1.38;;;;;;;24.72;33.59;99303.56;10329289;28;20717;-42
2023/05/06 16:14:56;;;;;;;1.58;1.48;;;;;;;24.61;32.65;99293.81;10329539;28;20242;-41
2023/05/06 16:19:58;;;;;;;1.30;1.20;;;;;;;25.58;31.83;99258.91;10315541;28;20234;-44
2023/05/06 16:24:59;;;;;;;3.80;1.85;;;;;;;24.79;33.21;99294.19;10311177;28;20241;-44
2023/05/06 16:30:01;;;;;;;2.70;1.40;;;;;;;25.39;33.73;99285.47;10306819;28;20234;-42
2023/05/06 16:35:03;;;;;;;2.67;1.60;;;;;;;23.88;34.60;99346.69;10297914;28;20694;-42
2023/05/06 16:40:06;;;;;;;1.60;1.50;;;;;;;24.91;34.71;99324.69;10285836;28;20676;-40
2023/05/06 16:45:10;;;;;;;8.10;1.17;;;;;;;24.71;34.31;99326.56;10304249;28;20233;-41
2023/05/06 16:50:12;;;;;;;3.03;1.40;;;;;;;24.99;33.68;99334.19;10325910;28;20206;-43
2023/05/06 16:55:14;;;;;;;1.55;1.45;;;;;;;24.44;34.33;99318.88;10319516;28;20238;-42
2023/05/06 17:00:16;;;;;;;2.42;1.25;;;;;;;24.83;33.99;99339.84;10320901;28;20910;-43
2023/05/06 17:05:18;;;;;;;1.50;1.40;;;;;;;24.22;34.25;99345.88;10325874;28;20234;-41
2023/05/06 17:10:27;;;;;;;5.25;1.70;;;;;;;25.03;33.97;99322.34;10312617;28;20248;-42
2023/05/06 17:15:29;;;;;;;1.17;1.17;;;;;;;24.87;34.41;99338.13;10294620;28;20256;-43
2023/05/06 17:20:31;;;;;;;1.83;1.30;;;;;;;25.18;33.52;99301.38;10291326;28;20234;-41
2023/05/06 17:25:48;;;;;;;1.42;1.20;;;;;;;24.73;33.71;99346.25;10311066;28;20244;-42
2023/05/06 17:30:50;;;;;;;1.40;1.30;;;;;;;23.72;34.24;99326.84;10301470;28;20229;-41
2023/05/06 17:35:51;;;;;;;2.10;1.27;;;;;;;23.98;34.90;99350.13;10307299;28;20233;-40
2023/05/06 17:40:53;;;;;;;2.97;1.55;;;;;;;24.54;34.54;99343.41;10304084;28;20231;-43
2023/05/06 17:45:55;;;;;;;3.80;1.52;;;;;;;23.89;35.16;99331.94;10314085;28;20237;-41
2023/05/06 17:51:01;;;;;;;3.30;1.50;;;;;;;22.79;36.56;99383.69;10304719;28;20332;-42
2023/05/06 17:56:03;;;;;;;2.67;1.40;;;;;;;23.51;35.76;99381.56;10301635;28;20329;-41
2023/05/06 18:01:05;;;;;;;2.08;1.48;;;;;;;24.66;34.92;99323.88;10287708;28;20236;-43
2023/05/06 18:06:07;;;;;;;1.42;1.33;;;;;;;24.26;35.52;99314.97;10293153;28;20259;-43
2023/05/06 18:11:08;;;;;;;2.58;1.48;;;;;;;23.10;36.60;99365.38;10304683;28;20846;-42
2023/05/06 18:16:10;;;;;;;3.63;1.50;;;;;;;24.74;35.32;99309.56;10281194;28;20618;-41
2023/05/06 18:21:12;;;;;;;1.85;1.67;;;;;;;23.06;36.38;99386.09;10295398;28;20241;-41
2023/05/06 18:26:14;;;;;;;3.58;1.75;;;;;;;22.39;37.81;99432.53;10311457;28;20241;-41
2023/05/06 18:31:28;;;;;;;1.95;1.73;;;;;;;22.81;37.07;99423.25;10304127;28;20251;-40
2023/05/06 18:36:31;;;;;;;2.28;1.70;;;;;;;23.07;36.46;99415.03;10304126;28;20333;-43
2023/05/06 18:41:32;;;;;;;2.00;1.77;;;;;;;23.51;37.14;99399.84;10302033;28;20235;-40
2023/05/06 18:46:34;;;;;;;1.60;1.48;;;;;;;23.44;36.81;99372.84;10285518;28;20245;-41
2023/05/06 18:51:36;;;;;;;1.50;1.30;;;;;;;24.07;35.85;99365.91;10297449;28;20614;-43
2023/05/06 18:56:37;;;;;;;1.83;1.50;;;;;;;22.47;37.21;99433.88;10303758;28;20615;-40
2023/05/06 19:01:39;;;;;;;2.15;1.70;;;;;;;22.99;36.88;99431.94;10302698;28;20234;-41
2023/05/06 19:06:41;;;;;;;2.05;1.40;;;;;;;23.40;35.92;99378.06;10292600;28;20238;-41
2023/05/06 19:11:43;;;;;;;3.33;1.50;;;;;;;24.14;36.01;99404.66;10302915;28;20300;-42
2023/05/06 19:16:45;;;;;;;2.10;1.70;;;;;;;22.10;38.22;99454.00;10318576;28;20257;-42
2023/05/06 19:21:47;;;;;;;2.45;1.77;;;;;;;21.34;39.02;99505.13;10303204;28;20234;-39
2023/05/06 19:26:48;;;;;;;1.88;1.77;;;;;;;21.64;38.54;99486.53;10282087;28;20996;-42
2023/05/06 19:31:50;;;;;;;2.25;1.60;;;;;;;23.17;36.71;99442.28;10273215;28;20237;-42
2023/05/06 19:36:52;;;;;;;2.80;1.90;;;;;;;22.61;37.00;99445.09;10305607;28;20234;-40
2023/05/06 19:41:54;;;;;;;1.90;1.77;;;;;;;20.79;38.87;99471.84;10319596;28;20226;-43
2023/05/06 19:46:56;;;;;;;3.30;1.70;;;;;;;22.22;38.16;99457.31;10324462;28;20253;-42
2023/05/06 19:51:58;;;;;;;1.88;1.55;;;;;;;22.81;37.40;99414.25;10314762;28;20241;-43
2023/05/06 19:57:00;;;;;;;3.58;2.22;;;;;;;23.24;37.06;99429.16;10317188;28;20642;-40
2023/05/06 20:02:01;;;;;;;3.95;1.88;;;;;;;23.32;36.72;99435.97;10324086;28;20233;-42
2023/05/06 20:07:03;;;;;;;2.75;1.75;;;;;;;22.83;38.14;99467.44;10314133;28;20230;-44
2023/05/06 20:12:05;;;;;;;2.90;1.95;;;;;;;22.80;38.04;99450.78;10321745;28;20970;-42
2023/05/06 20:17:07;;;;;;;3.03;2.30;;;;;;;20.93;40.29;99521.16;10323064;28;20337;-41
2023/05/06 20:22:09;;;;;;;3.58;2.30;;;;;;;22.46;38.88;99462.22;10313760;28;20237;-44
2023/05/06 20:27:10;;;;;;;3.97;1.90;;;;;;;22.44;38.35;99467.94;10291278;28;20260;-43
2023/05/06 20:32:12;;;;;;;5.40;1.98;;;;;;;22.23;38.26;99493.53;10273914;28;20724;-40
2023/05/06 20:37:14;;;;;;;3.05;1.92;;;;;;;22.25;38.28;99496.81;10309758;28;20240;-40
2023/05/06 20:42:16;;;;;;;4.15;1.90;;;;;;;20.90;39.29;99534.47;10320102;28;20230;-41
2023/05/06 20:47:18;;;;;;;3.30;1.60;;;;;;;20.97;39.90;99505.97;10314543;28;20294;-41
2023/05/06 20:52:20;;;;;;;1.70;1.60;;;;;;;20.31;39.94;99503.47;10324925;28;20239;-41
2023/05/06 20:57:22;;;;;;;1.77;1.55;;;;;;;20.65;39.99;99533.16;10321467;28;20320;-41
2023/05/06 21:02:25;;;;;;;1.98;1.70;;;;;;;20.93;39.50;99487.72;10320588;28;20369;-39
2023/05/06 21:07:27;;;;;;;2.10;1.90;;;;;;;19.43;41.19;99487.97;10319983;28;20248;-41
2023/05/06 21:12:29;;;;;;;2.38;2.17;;;;;;;19.14;42.24;99520.66;10318909;28;20230;-40
2023/05/06 21:17:30;;;;;;;3.87;2.23;;;;;;;18.58;43.34;99546.84;10320999;28;20245;-40
2023/05/06 21:22:32;;;;;;;3.27;1.97;;;;;;;20.44;40.77;99523.97;10320188;28;20233;-39
2023/05/06 21:27:34;;;;;;;2.40;2.20;;;;;;;20.38;40.57;99517.69;10321762;28;20243;-40
2023/05/06 21:32:36;;;;;;;2.42;2.22;;;;;;;21.83;39.66;99460.47;10318041;28;20234;-40
2023/05/06 21:37:37;;;;;;;2.58;2.33;;;;;;;19.04;43.57;99550.34;10316397;28;20256;-40
2023/05/06 21:42:39;;;;;;;5.45;3.00;;;;;;;18.14;46.25;99550.03;10319782;28;20240;-41
2023/05/06 21:47:41;;;;;;;3.90;3.03;;;;;;;18.59;45.82;99570.13;10320995;28;21074;-41
2023/05/06 21:52:43;;;;;;;3.90;2.55;;;;;;;17.23;48.27;99546.97;10317167;28;20280;-41
2023/05/06 21:57:45;;;;;;;5.83;2.63;;;;;;;19.82;44.12;99517.81;10315612;28;20241;-40
2023/05/06 22:02:46;;;;;;;4.80;2.40;;;;;;;18.02;45.75;99593.41;10317681;28;20233;-40
2023/05/06 22:07:49;;;;;;;4.10;2.60;;;;;;;18.97;44.94;99571.38;10320664;28;20321;-40
2023/05/06 22:12:50;;;;;;;2.73;2.43;;;;;;;18.05;45.25;99594.78;10316060;28;20243;-40
2023/05/06 22:17:52;;;;;;;3.63;2.70;;;;;;;16.51;47.96;99580.25;10318522;28;20332;-42
2023/05/06 22:22:54;;;;;;;3.40;2.60;;;;;;;15.86;49.45;99606.75;10323423;28;20614;-42
2023/05/06 22:27:56;;;;;;;3.73;2.90;;;;;;;16.30;48.88;99649.91;10312163;28;20252;-40
2023/05/06 22:32:58;;;;;;;7.10;3.33;;;;;;;16.39;48.91;99640.44;10319713;28;20235;-41
2023/05/06 22:38:00;;;;;;;8.43;3.67;;;;;;;16.93;46.75;99648.66;10314808;28;20238;-40
2023/05/06 22:43:01;;;;;;;4.40;3.40;;;;;;;18.39;44.69;99598.50;10321742;28;20607;-41
2023/05/06 22:48:03;;;;;;;5.13;3.60;;;;;;;17.92;45.90;99660.84;10321016;28;20241;-41
2023/05/06 22:53:06;;;;;;;4.33;3.60;;;;;;;17.75;46.08;99663.44;10318216;28;20241;-41
2023/05/06 22:58:16;;;;;;;4.10;3.37;;;;;;;16.81;47.41;99688.31;10320211;28;20691;-42
2023/05/06 23:03:18;;;;;;;3.67;3.30;;;;;;;17.22;46.31;99680.50;10318567;28;20257;-40
2023/05/06 23:08:20;;;;;;;5.00;3.63;;;;;;;17.05;46.88;99693.84;10322564;28;20241;-40
2023/05/06 23:13:22;;;;;;;3.37;3.07;;;;;;;16.34;47.52;99683.50;10315586;28;20226;-42
2023/05/06 23:18:23;;;;;;;4.07;3.07;;;;;;;16.64;47.68;99704.34;10319671;28;20230;-42
2023/05/06 23:23:25;;;;;;;3.80;3.20;;;;;;;16.48;47.61;99704.94;10318105;28;20244;-41
2023/05/06 23:28:27;;;;;;;4.20;3.10;;;;;;;16.31;47.98;99691.22;10316956;28;20732;-42